Time;durP1;ratioP1;P1;durP2;ratioP2;P2;SDS_P1;SDS_P2;PMS_P1;PMS_P2;Temp;Humidity;BMP_temperature;BMP_pressure;BME280_temperature;BME280_humidity;BME280_pressure;Samples;Min_cycle;Max_cycle;Signal;HPM_P1;HPM_P2
2020/12/04 00:01:23;;;;;;;48.60;22.25;;;;;;;-2.04;83.06;99298.72;5024714;28;20102;-48
2020/12/04 00:03:50;;;;;;;51.47;22.55;;;;;;;-2.31;83.55;99288.13;5020610;28;20080;-49
2020/12/04 00:06:16;;;;;;;57.22;23.95;;;;;;;-2.47;85.05;99288.06;5025803;28;20424;-51
2020/12/04 00:08:42;;;;;;;46.65;21.88;;;;;;;-2.38;84.09;99298.59;5021362;28;20107;-51
2020/12/04 00:11:09;;;;;;;47.90;22.13;;;;;;;-2.12;83.14;99298.34;5025918;28;20040;-54
2020/12/04 00:13:35;;;;;;;45.33;21.08;;;;;;;-2.28;83.61;99294.94;5021872;28;20077;-55
2020/12/04 00:16:01;;;;;;;52.10;23.50;;;;;;;-2.49;84.57;99292.13;5023852;28;20451;-50
2020/12/04 00:18:28;;;;;;;48.13;22.38;;;;;;;-2.21;84.03;99292.84;5024164;28;20509;-50
2020/12/04 00:20:54;;;;;;;50.92;23.00;;;;;;;-2.24;83.80;99287.66;5021669;28;20096;-49
2020/12/04 00:23:21;;;;;;;44.42;22.27;;;;;;;-2.24;83.84;99275.13;5025541;28;20468;-52
2020/12/04 00:25:47;;;;;;;44.85;21.08;;;;;;;-2.29;83.74;99278.16;5020582;28;20045;-50
2020/12/04 00:28:13;;;;;;;46.45;21.00;;;;;;;-2.38;83.78;99276.03;5018828;28;20041;-53
2020/12/04 00:30:40;;;;;;;53.85;22.38;;;;;;;-2.34;84.25;99271.25;5022753;28;20053;-53
2020/12/04 00:33:06;;;;;;;44.75;21.52;;;;;;;-2.13;83.24;99263.13;5028827;28;20053;-51
2020/12/04 00:35:33;;;;;;;45.08;20.90;;;;;;;-2.10;82.88;99275.84;5026108;28;20057;-51
2020/12/04 00:37:59;;;;;;;45.70;21.00;;;;;;;-2.32;83.52;99272.19;5026557;28;20402;-51
2020/12/04 00:40:25;;;;;;;44.63;21.73;;;;;;;-2.23;83.96;99268.47;5027752;28;20049;-56
2020/12/04 00:42:52;;;;;;;44.33;19.80;;;;;;;-2.35;83.56;99262.03;5024274;28;20046;-53
2020/12/04 00:45:18;;;;;;;43.75;20.50;;;;;;;-2.10;83.30;99264.16;5028780;28;20106;-52
2020/12/04 00:47:45;;;;;;;44.78;21.05;;;;;;;-1.98;82.24;99256.44;5024232;28;20057;-51
2020/12/04 00:50:11;;;;;;;39.97;18.88;;;;;;;-2.05;83.12;99264.41;5034394;28;20053;-51
2020/12/04 00:52:38;;;;;;;45.03;19.73;;;;;;;-2.44;84.01;99259.03;5029147;28;20060;-51
2020/12/04 00:55:04;;;;;;;43.97;19.42;;;;;;;-2.18;83.50;99262.03;5032509;28;20846;-50
2020/12/04 00:57:31;;;;;;;44.95;19.92;;;;;;;-2.23;83.45;99255.91;5030578;28;20651;-56
2020/12/04 00:59:57;;;;;;;44.28;19.88;;;;;;;-2.27;83.27;99246.50;5029696;28;20046;-54
2020/12/04 01:02:23;;;;;;;40.97;19.88;;;;;;;-2.32;83.55;99243.75;5032009;28;20106;-51
2020/12/04 01:04:50;;;;;;;43.88;20.55;;;;;;;-2.34;83.87;99240.31;5027799;28;20050;-47
2020/12/04 01:07:16;;;;;;;44.50;20.27;;;;;;;-2.34;83.89;99230.31;5032797;28;20401;-50
2020/12/04 01:09:42;;;;;;;40.28;19.73;;;;;;;-2.59;84.87;99228.13;5028005;28;20111;-51
2020/12/04 01:12:10;;;;;;;41.90;18.40;;;;;;;-2.17;83.92;99226.16;5028647;28;20086;-49
2020/12/04 01:14:36;;;;;;;41.38;18.33;;;;;;;-2.09;83.66;99224.91;5022917;28;20131;-53
2020/12/04 01:17:02;;;;;;;45.83;21.05;;;;;;;-2.25;83.23;99224.91;5026259;28;20108;-54
2020/12/04 01:19:29;;;;;;;41.15;19.08;;;;;;;-2.01;82.77;99223.66;5026348;28;20049;-53
2020/12/04 01:21:55;;;;;;;41.75;19.77;;;;;;;-2.18;83.18;99226.94;5024462;28;20430;-49
2020/12/04 01:24:21;;;;;;;46.85;22.90;;;;;;;-2.22;83.14;99215.03;5028103;28;20084;-50
2020/12/04 01:26:48;;;;;;;43.28;21.13;;;;;;;-2.08;83.66;99212.47;5023001;28;20406;-51
2020/12/04 01:29:14;;;;;;;42.42;20.23;;;;;;;-2.05;83.27;99220.13;5023389;28;20072;-53
2020/12/04 01:31:45;;;;;;;43.97;20.02;;;;;;;-2.24;83.79;99217.47;5023395;28;20045;-52
2020/12/04 01:34:11;;;;;;;45.10;20.42;;;;;;;-2.05;83.89;99215.13;5048765;28;20044;-48
2020/12/04 01:36:38;;;;;;;43.90;21.10;;;;;;;-2.37;85.02;99205.91;5043788;28;20394;-50
2020/12/04 01:39:04;;;;;;;42.83;20.88;;;;;;;-2.29;84.71;99197.97;5046403;28;20077;-51
2020/12/04 01:41:35;;;;;;;46.58;20.92;;;;;;;-2.04;84.37;99190.91;5044931;28;20057;-54
2020/12/04 01:44:03;;;;;;;42.35;21.08;;;;;;;-2.31;84.56;99192.88;5045233;28;20119;-53
2020/12/04 01:46:30;;;;;;;44.45;20.55;;;;;;;-2.14;84.45;99182.06;5045816;28;20110;-51
2020/12/04 01:48:56;;;;;;;48.10;22.33;;;;;;;-2.15;84.86;99182.84;5044165;28;20572;-49
2020/12/04 01:51:24;;;;;;;45.35;21.75;;;;;;;-2.03;84.35;99176.72;5046858;28;20137;-54
2020/12/04 01:53:51;;;;;;;50.80;21.25;;;;;;;-2.09;84.82;99165.59;5042210;28;20049;-52
2020/12/04 01:56:17;;;;;;;44.45;21.55;;;;;;;-2.28;86.18;99165.44;5047451;28;20080;-48
2020/12/04 01:58:44;;;;;;;46.75;22.90;;;;;;;-2.39;85.67;99166.53;5042404;28;20049;-50
2020/12/04 02:01:16;;;;;;;50.60;23.08;;;;;;;-2.14;86.10;99162.00;5047743;28;20497;-49
2020/12/04 02:03:43;;;;;;;50.35;24.30;;;;;;;-2.32;86.09;99161.91;5040667;28;20095;-51
2020/12/04 02:06:37;;;;;;;49.15;21.67;;;;;;;-2.12;85.62;99154.56;5047427;28;20052;-51
2020/12/04 02:09:26;;;;;;;47.60;22.27;;;;;;;-2.26;86.23;99153.00;5043967;28;20452;-49
2020/12/04 02:11:53;;;;;;;48.15;23.10;;;;;;;-2.18;86.93;99147.56;5042472;28;20045;-53
2020/12/04 02:14:21;;;;;;;45.42;22.02;;;;;;;-2.26;87.07;99148.84;5046777;28;20366;-52
2020/12/04 02:16:48;;;;;;;48.95;22.02;;;;;;;-1.92;85.77;99135.50;5041254;28;20124;-49
2020/12/04 02:19:14;;;;;;;48.78;23.58;;;;;;;-2.28;86.69;99119.47;5041983;28;20423;-54
2020/12/04 02:21:42;;;;;;;50.28;23.25;;;;;;;-2.29;87.27;99125.25;5042518;28;20142;-53
2020/12/04 02:24:09;;;;;;;51.00;25.73;;;;;;;-2.16;86.95;99120.94;5046547;28;20048;-51
2020/12/04 02:26:36;;;;;;;48.75;23.70;;;;;;;-2.35;88.07;99118.31;5043176;28;20099;-54
2020/12/04 02:29:03;;;;;;;51.65;24.40;;;;;;;-2.11;87.28;99121.19;5044889;28;20442;-50
2020/12/04 02:31:31;;;;;;;51.47;22.75;;;;;;;-2.00;87.09;99119.19;5044306;28;20420;-53
2020/12/04 02:33:58;;;;;;;51.20;24.05;;;;;;;-2.25;88.20;99117.13;5043348;28;20053;-54
2020/12/04 02:36:24;;;;;;;49.45;23.80;;;;;;;-2.12;88.07;99114.44;5046048;28;20455;-50
2020/12/04 02:38:50;;;;;;;51.33;23.30;;;;;;;-2.13;87.01;99102.69;5041255;28;20053;-48
2020/12/04 02:41:17;;;;;;;46.65;22.50;;;;;;;-1.97;86.96;99101.81;5046918;28;20473;-52
2020/12/04 02:43:43;;;;;;;47.35;23.73;;;;;;;-2.00;87.17;99110.03;5042124;28;20192;-51
2020/12/04 02:46:10;;;;;;;52.03;24.70;;;;;;;-2.27;87.97;99101.97;5046646;28;20070;-52
2020/12/04 02:48:36;;;;;;;51.70;24.70;;;;;;;-1.99;87.55;99096.69;5040350;28;20057;-53
2020/12/04 02:51:06;;;;;;;48.75;22.88;;;;;;;-1.99;87.26;99093.34;5044706;28;20502;-50
2020/12/04 02:53:32;;;;;;;49.70;22.15;;;;;;;-1.74;86.17;99085.38;5042451;28;20103;-52
2020/12/04 02:55:58;;;;;;;43.85;22.95;;;;;;;-2.01;87.57;99085.75;5043310;28;20077;-51
2020/12/04 02:58:24;;;;;;;47.80;23.90;;;;;;;-2.12;88.11;99077.69;5045373;28;20086;-50
2020/12/04 03:00:51;;;;;;;48.55;23.05;;;;;;;-2.12;88.90;99079.34;5041477;28;20103;-52
2020/12/04 03:03:17;;;;;;;50.00;24.45;;;;;;;-1.81;87.70;99079.19;5046397;28;20057;-53
2020/12/04 03:05:43;;;;;;;46.80;23.58;;;;;;;-2.27;89.18;99076.06;5041692;28;20166;-53
2020/12/04 03:08:10;;;;;;;50.45;23.95;;;;;;;-2.08;89.48;99081.19;5046164;28;20056;-50
2020/12/04 03:10:36;;;;;;;50.40;23.88;;;;;;;-2.01;89.26;99079.88;5039816;28;20049;-50
2020/12/04 03:13:03;;;;;;;49.40;22.90;;;;;;;-2.08;89.82;99087.09;5044231;28;20049;-53
2020/12/04 03:15:29;;;;;;;45.47;22.83;;;;;;;-1.86;88.75;99068.06;5043958;28;20049;-52
2020/12/04 03:17:56;;;;;;;49.10;22.52;;;;;;;-1.87;88.67;99073.88;5042219;28;20046;-51
2020/12/04 03:20:22;;;;;;;48.75;23.52;;;;;;;-2.03;89.16;99067.28;5045702;28;20114;-51
2020/12/04 03:22:49;;;;;;;42.22;20.23;;;;;;;-1.94;89.39;99067.72;5034475;28;20049;-50
2020/12/04 03:25:15;;;;;;;47.33;24.15;;;;;;;-1.73;88.04;99055.34;5046871;28;20057;-50
2020/12/04 03:27:41;;;;;;;44.95;21.63;;;;;;;-1.85;88.47;99060.63;5041487;28;20626;-50
2020/12/04 03:30:08;;;;;;;47.63;22.48;;;;;;;-1.90;89.23;99063.69;5045636;28;20049;-50
2020/12/04 03:32:34;;;;;;;46.38;24.52;;;;;;;-1.73;88.95;99057.84;5042599;28;20501;-53
2020/12/04 03:35:01;;;;;;;42.05;20.85;;;;;;;-1.39;87.71;99050.22;5043721;28;20119;-55
2020/12/04 03:37:27;;;;;;;44.85;22.48;;;;;;;-1.48;87.52;99047.28;5044619;28;20102;-50
2020/12/04 03:39:54;;;;;;;45.70;22.48;;;;;;;-1.65;88.31;99046.53;5041706;28;20083;-49
2020/12/04 03:42:20;;;;;;;41.33;20.33;;;;;;;-1.55;88.96;99040.28;5045434;28;20052;-50
2020/12/04 03:44:47;;;;;;;46.30;22.52;;;;;;;-1.41;87.69;99039.28;5039485;28;20049;-52
2020/12/04 03:47:13;;;;;;;45.15;21.13;;;;;;;-1.60;88.44;99031.69;5046988;28;20053;-49
2020/12/04 03:49:39;;;;;;;45.63;21.90;;;;;;;-1.48;88.56;99034.75;5041500;28;20056;-48
2020/12/04 03:52:06;;;;;;;44.53;22.63;;;;;;;-1.19;88.08;99035.25;5045238;28;20107;-48
2020/12/04 03:54:32;;;;;;;47.05;21.65;;;;;;;-1.28;88.39;99038.19;5042803;28;20571;-50
2020/12/04 03:56:58;;;;;;;43.72;22.40;;;;;;;-1.30;88.21;99034.72;5043205;28;20045;-50
2020/12/04 03:59:25;;;;;;;43.75;21.42;;;;;;;-1.27;88.02;99034.88;5044722;28;20048;-57
2020/12/04 04:01:52;;;;;;;38.63;21.67;;;;;;;-1.26;87.33;99019.03;5040912;28;20050;-51
2020/12/04 04:04:19;;;;;;;44.65;21.83;;;;;;;-1.23;87.32;99024.19;5045727;28;20059;-50
2020/12/04 04:06:45;;;;;;;44.28;21.85;;;;;;;-1.25;88.05;99022.38;5044146;28;20053;-51
2020/12/04 04:09:12;;;;;;;47.65;23.63;;;;;;;-1.44;88.33;99023.19;5049918;28;20500;-48
2020/12/04 04:11:38;;;;;;;46.75;22.45;;;;;;;-1.45;89.02;99013.97;5045346;28;20118;-54
2020/12/04 04:14:05;;;;;;;42.40;21.75;;;;;;;-1.50;89.64;99007.88;5048144;28;20111;-50
2020/12/04 04:16:31;;;;;;;47.65;24.73;;;;;;;-1.40;89.45;99000.81;5046652;28;20579;-52
2020/12/04 04:18:57;;;;;;;47.83;22.70;;;;;;;-1.39;88.90;98997.50;5045936;28;20547;-49
2020/12/04 04:21:24;;;;;;;43.53;22.80;;;;;;;-1.21;88.76;98979.06;5049442;28;20466;-51
2020/12/04 04:23:50;;;;;;;45.58;22.73;;;;;;;-1.24;89.05;98974.78;5043732;28;20099;-53
2020/12/04 04:26:17;;;;;;;47.03;23.25;;;;;;;-1.40;89.41;98975.72;5049525;28;20412;-51
2020/12/04 04:28:43;;;;;;;48.50;24.70;;;;;;;-1.32;89.87;98973.56;5045038;28;20075;-52
2020/12/04 04:31:12;;;;;;;41.58;22.40;;;;;;;-1.41;89.71;98970.66;5046443;28;20504;-49
2020/12/04 04:33:39;;;;;;;43.92;22.23;;;;;;;-1.25;89.32;98964.66;5046314;28;20045;-52
2020/12/04 04:36:06;;;;;;;41.92;21.63;;;;;;;-1.38;89.78;98961.63;5048255;28;20048;-53
2020/12/04 04:38:33;;;;;;;47.05;21.60;;;;;;;-1.43;90.34;98952.13;5045825;28;20513;-49
2020/12/04 04:40:59;;;;;;;48.95;24.23;;;;;;;-1.30;90.63;98951.88;5045939;28;20115;-51
2020/12/04 04:43:25;;;;;;;44.80;23.15;;;;;;;-1.21;90.15;98952.28;5047764;28;20075;-53
2020/12/04 04:45:53;;;;;;;45.45;23.80;;;;;;;-1.17;89.88;98946.63;5044169;28;20410;-51
2020/12/04 04:48:27;;;;;;;45.30;21.73;;;;;;;-0.87;89.62;98957.16;5048630;28;20048;-50
2020/12/04 04:50:56;;;;;;;43.08;22.95;;;;;;;-1.05;88.85;98951.34;5044516;28;20099;-51
2020/12/04 04:53:23;;;;;;;42.47;22.90;;;;;;;-1.03;89.42;98945.56;5048116;28;20048;-50
2020/12/04 04:55:51;;;;;;;42.83;22.65;;;;;;;-1.22;89.93;98945.56;5043124;28;20510;-50
2020/12/04 04:58:18;;;;;;;43.50;21.15;;;;;;;-1.13;90.16;98938.44;5049066;28;20095;-51
2020/12/04 05:00:44;;;;;;;42.10;23.27;;;;;;;-0.87;89.02;98954.63;5044267;28;20045;-52
2020/12/04 05:03:11;;;;;;;40.95;22.35;;;;;;;-1.09;90.05;98946.97;5049145;28;20145;-54
2020/12/04 05:05:44;;;;;;;45.65;22.13;;;;;;;-0.83;90.12;98948.94;5045997;28;20041;-53
2020/12/04 05:08:14;;;;;;;41.67;20.60;;;;;;;-0.76;89.49;98955.06;5048232;28;20456;-54
2020/12/04 05:10:42;;;;;;;40.97;21.65;;;;;;;-1.01;89.89;98940.63;5045970;28;20057;-53
2020/12/04 05:13:08;;;;;;;40.25;22.00;;;;;;;-1.11;91.49;98941.00;5048290;28;20522;-53
2020/12/04 05:15:36;;;;;;;38.60;20.63;;;;;;;-0.68;89.84;98935.31;5044537;28;20096;-53
2020/12/04 05:18:10;;;;;;;43.72;21.15;;;;;;;-0.91;90.03;98935.19;5045529;28;20077;-49
2020/12/04 05:20:40;;;;;;;43.00;21.80;;;;;;;-1.13;91.43;98930.03;5042518;28;20080;-53
2020/12/04 05:23:07;;;;;;;42.40;21.75;;;;;;;-0.99;90.92;98921.44;5047426;28;20524;-52
2020/12/04 05:25:37;;;;;;;41.38;21.77;;;;;;;-0.64;90.33;98924.59;5044664;28;20440;-48
2020/12/04 05:28:23;;;;;;;39.00;20.88;;;;;;;-0.68;90.24;98931.13;5046373;28;20049;-48
2020/12/04 05:30:50;;;;;;;;;;;;;;;-0.52;89.21;98930.97;5046247;28;20033;-47
2020/12/04 05:33:18;;;;;;;35.20;19.42;;;;;;;-0.90;90.48;98931.03;5048691;28;19928;-51
2020/12/04 05:35:51;;;;;;;36.75;20.00;;;;;;;-0.82;90.70;98935.59;5043348;28;20555;-49
2020/12/04 05:38:19;;;;;;;39.35;20.15;;;;;;;-0.45;89.89;98926.19;5043063;28;20557;-52
2020/12/04 05:40:51;;;;;;;38.53;19.90;;;;;;;-0.57;89.78;98931.56;5043005;28;20040;-50
2020/12/04 05:43:46;;;;;;;39.05;20.98;;;;;;;-0.68;90.60;98932.78;5043196;28;20048;-49
2020/12/04 05:46:21;;;;;;;36.22;21.08;;;;;;;-0.46;90.51;98930.38;5026028;28;20103;-52
2020/12/04 05:48:58;;;;;;;38.30;20.80;;;;;;;-0.57;90.77;98924.88;5017632;28;20034;-53
2020/12/04 05:51:30;;;;;;;36.17;20.25;;;;;;;-0.33;90.37;98925.00;5027971;28;20262;-47
2020/12/04 05:53:57;;;;;;;43.22;21.85;;;;;;;-0.58;90.49;98925.69;5028192;28;20054;-52
2020/12/04 05:56:24;;;;;;;35.85;20.13;;;;;;;-0.21;90.00;98929.69;5030941;28;20057;-51
2020/12/04 05:58:55;;;;;;;38.70;19.90;;;;;;;0.09;88.56;98929.16;5026044;28;20253;-53
2020/12/04 06:01:23;;;;;;;40.55;20.60;;;;;;;-0.39;89.43;98922.25;5031503;28;20162;-54
2020/12/04 06:03:51;;;;;;;35.63;19.67;;;;;;;-0.34;90.27;98923.31;5026292;28;20517;-49
2020/12/04 06:06:37;;;;;;;40.72;19.90;;;;;;;-0.33;89.97;98917.47;5031869;28;20493;-49
2020/12/04 06:09:06;;;;;;;38.55;20.27;;;;;;;-0.06;88.49;98900.09;5029805;28;20057;-56
2020/12/04 06:11:36;;;;;;;43.28;20.67;;;;;;;-0.21;89.28;98911.22;5028767;28;20053;-51
2020/12/04 06:14:16;;;;;;;36.33;19.65;;;;;;;-0.06;89.29;98910.16;5029675;28;20076;-50
2020/12/04 06:16:43;;;;;;;36.78;20.52;;;;;;;-0.01;89.24;98912.84;5028789;28;20049;-51
2020/12/04 06:19:32;;;;;;;40.28;21.70;;;;;;;0.18;88.49;98910.22;5031139;28;20103;-52
2020/12/04 06:22:05;;;;;;;38.75;19.30;;;;;;;-0.17;89.48;98915.59;5041716;28;20559;-50
2020/12/04 06:24:56;;;;;;;36.67;19.55;;;;;;;0.18;87.89;98912.75;5044315;28;20068;-53
2020/12/04 06:27:39;;;;;;;36.08;19.90;;;;;;;0.14;87.88;98915.97;5042144;28;20412;-53
2020/12/04 06:30:09;;;;;;;37.90;20.40;;;;;;;-0.39;90.19;98916.38;5045850;28;20077;-51
2020/12/04 06:32:37;;;;;;;42.05;22.15;;;;;;;-0.29;90.00;98904.22;5043056;28;20045;-51
2020/12/04 06:35:08;;;;;;;37.65;20.90;;;;;;;0.14;88.66;98910.94;5045154;28;20155;-54
2020/12/04 06:37:42;;;;;;;41.22;21.45;;;;;;;-0.15;89.01;98911.47;5043399;28;20056;-54
2020/12/04 06:40:27;;;;;;;39.45;20.45;;;;;;;0.19;88.67;98918.66;5054118;28;20052;-54
2020/12/04 06:42:55;;;;;;;36.50;19.70;;;;;;;0.05;88.58;98910.59;5034944;28;20069;-54
2020/12/04 06:45:45;;;;;;;41.30;20.50;;;;;;;-0.04;89.15;98920.31;5022903;28;20560;-51
2020/12/04 06:48:14;;;;;;;38.28;21.25;;;;;;;0.06;89.99;98924.03;5036215;28;20474;-54
2020/12/04 06:50:42;;;;;;;39.03;21.20;;;;;;;0.11;88.64;98920.03;5026422;28;20072;-49
2020/12/04 06:53:26;;;;;;;39.55;20.25;;;;;;;-0.02;89.65;98917.03;5030506;28;20110;-52
2020/12/04 06:55:57;;;;;;;39.38;21.52;;;;;;;-0.25;90.25;98915.28;5027629;28;20418;-50
2020/12/04 06:58:23;;;;;;;39.65;21.08;;;;;;;-0.12;89.71;98919.13;5029949;28;20094;-51
2020/12/04 07:00:56;;;;;;;40.60;22.25;;;;;;;-0.26;90.89;98919.44;5025046;28;20053;-51
2020/12/04 07:03:22;;;;;;;43.53;23.00;;;;;;;0.03;89.37;98921.38;5030382;28;20382;-52
2020/12/04 07:05:53;;;;;;;40.28;21.20;;;;;;;-0.39;91.07;98929.81;5025286;28;20465;-51
2020/12/04 07:08:19;;;;;;;42.47;22.70;;;;;;;0.12;89.66;98936.84;5026059;28;20114;-53
2020/12/04 07:10:52;;;;;;;36.90;20.13;;;;;;;0.15;88.60;98931.94;5026346;28;20458;-53
2020/12/04 07:13:19;;;;;;;41.30;22.20;;;;;;;0.22;89.10;98929.69;5041398;28;20044;-53
2020/12/04 07:15:58;;;;;;;39.78;21.33;;;;;;;0.09;89.23;98932.53;5044113;28;20122;-49
2020/12/04 07:18:40;;;;;;;36.53;20.90;;;;;;;0.41;88.37;98945.47;5042280;28;20053;-52
2020/12/04 07:21:16;;;;;;;36.97;20.20;;;;;;;0.48;88.19;98939.91;5045609;28;20125;-46
2020/12/04 07:23:43;;;;;;;34.85;19.63;;;;;;;0.33;88.07;98944.38;5045286;28;20110;-53
2020/12/04 07:26:19;;;;;;;33.45;19.27;;;;;;;0.49;87.63;98942.47;5046372;28;20048;-48
2020/12/04 07:28:56;;;;;;;34.60;18.63;;;;;;;0.62;87.97;98947.97;5021461;28;20442;-44
2020/12/04 07:31:23;;;;;;;34.10;18.50;;;;;;;0.70;87.31;98959.19;5041093;28;20060;-45
2020/12/04 07:33:59;;;;;;;34.65;18.98;;;;;;;0.94;85.81;98956.69;5047476;28;20049;-49
2020/12/04 07:36:32;;;;;;;34.03;19.30;;;;;;;0.50;87.05;98946.69;5047828;28;20068;-45
2020/12/04 07:39:01;;;;;;;33.33;17.95;;;;;;;0.95;86.37;98941.59;5047571;28;20122;-46
2020/12/04 07:41:32;;;;;;;35.45;18.38;;;;;;;0.74;87.20;98939.19;5050225;28;20045;-45
2020/12/04 07:44:01;;;;;;;33.67;19.30;;;;;;;0.61;87.84;98937.03;5052815;28;20049;-44
2020/12/04 07:46:32;;;;;;;34.60;18.92;;;;;;;0.36;88.64;98921.81;5049289;28;20408;-49
2020/12/04 07:49:12;;;;;;;36.00;19.83;;;;;;;0.36;89.10;98910.06;5047225;28;20065;-48
2020/12/04 07:51:42;;;;;;;34.63;19.33;;;;;;;0.25;89.79;98918.91;5046355;28;20139;-47
2020/12/04 07:54:24;;;;;;;37.42;20.02;;;;;;;0.80;87.88;98930.13;5050185;28;20087;-48
2020/12/04 07:56:54;;;;;;;33.33;17.77;;;;;;;0.89;86.71;98935.50;5044630;28;20099;-45
2020/12/04 07:59:26;;;;;;;35.20;19.17;;;;;;;1.08;86.84;98942.91;5048781;28;20550;-45
2020/12/04 08:02:02;;;;;;;34.00;18.75;;;;;;;1.12;85.97;98932.13;5045208;28;20139;-49
2020/12/04 08:04:30;;;;;;;33.63;18.25;;;;;;;1.01;86.52;98943.47;5048373;28;20072;-51
2020/12/04 08:07:08;;;;;;;31.80;18.27;;;;;;;1.09;86.05;98954.69;5046037;28;20041;-47
2020/12/04 08:09:40;;;;;;;29.88;18.10;;;;;;;1.04;86.94;98955.34;5046537;28;20107;-50
2020/12/04 08:12:18;;;;;;;31.48;19.33;;;;;;;0.93;86.09;98944.91;5049208;28;20054;-47
2020/12/04 08:14:53;;;;;;;30.23;17.10;;;;;;;1.25;86.32;98935.94;5047625;28;20052;-47
2020/12/04 08:17:22;;;;;;;25.30;14.43;;;;;;;1.10;86.99;98941.28;5044884;28;20078;-49
2020/12/04 08:19:49;;;;;;;34.17;18.73;;;;;;;1.05;86.68;98932.72;5047377;28;20045;-48
2020/12/04 08:22:16;;;;;;;31.50;17.77;;;;;;;1.07;87.10;98923.56;5044255;28;20080;-47
2020/12/04 08:25:03;;;;;;;31.10;18.38;;;;;;;1.50;85.83;98922.47;5044701;28;20108;-45
2020/12/04 08:27:45;;;;;;;31.55;18.05;;;;;;;1.59;84.26;98934.53;5045308;28;20055;-46
2020/12/04 08:30:17;;;;;;;28.92;16.80;;;;;;;1.17;86.21;98943.22;5049604;28;20044;-46
2020/12/04 08:32:48;;;;;;;32.85;18.02;;;;;;;0.96;87.25;98939.94;5046646;28;20574;-45
2020/12/04 08:35:14;;;;;;;32.45;18.33;;;;;;;0.89;87.89;98933.00;5024174;28;20094;-46
2020/12/04 08:37:41;;;;;;;34.70;18.85;;;;;;;1.28;86.90;98920.91;5029039;28;20041;-45
2020/12/04 08:40:29;;;;;;;30.73;18.45;;;;;;;1.71;85.01;98937.44;5032839;28;20045;-47
2020/12/04 08:43:11;;;;;;;33.17;17.55;;;;;;;1.87;84.55;98933.75;5044738;28;20049;-44
2020/12/04 08:45:39;;;;;;;31.75;17.90;;;;;;;1.79;84.79;98925.94;5042979;28;20049;-44
2020/12/04 08:48:12;;;;;;;31.20;17.80;;;;;;;1.56;85.79;98920.16;5048141;28;20069;-48
2020/12/04 08:50:46;;;;;;;30.55;17.60;;;;;;;1.46;86.60;98913.94;5046741;28;20085;-45
2020/12/04 08:53:19;;;;;;;30.45;18.50;;;;;;;1.49;86.15;98898.06;5049658;28;20059;-44
2020/12/04 08:55:50;;;;;;;34.17;18.23;;;;;;;1.91;84.80;98910.34;5041077;28;20053;-43
2020/12/04 08:58:20;;;;;;;33.90;18.90;;;;;;;1.75;85.04;98907.31;5053879;28;20052;-44
2020/12/04 09:00:48;;;;;;;29.65;17.25;;;;;;;2.20;83.57;98906.16;5047951;28;20457;-48
2020/12/04 09:03:15;;;;;;;29.35;16.65;;;;;;;2.14;83.78;98909.38;5043574;28;20582;-44
2020/12/04 09:05:41;;;;;;;29.08;16.42;;;;;;;2.65;81.90;98914.25;5044087;28;20106;-44
2020/12/04 09:08:08;;;;;;;31.25;17.13;;;;;;;2.45;82.16;98918.72;5050887;28;20533;-44
2020/12/04 09:10:37;;;;;;;30.17;17.55;;;;;;;2.17;82.18;98918.69;5045167;28;20072;-44
2020/12/04 09:13:05;;;;;;;27.83;16.90;;;;;;;2.22;82.62;98910.47;5050025;28;20476;-45
2020/12/04 09:15:32;;;;;;;26.45;17.20;;;;;;;1.81;84.32;98906.69;5033094;28;20049;-45
2020/12/04 09:17:58;;;;;;;27.60;16.80;;;;;;;1.69;85.41;98911.31;5048316;28;20560;-52
2020/12/04 09:20:25;;;;;;;30.92;17.45;;;;;;;2.38;83.69;98900.81;5047997;28;20053;-44
2020/12/04 09:22:52;;;;;;;31.13;17.67;;;;;;;2.61;81.88;98891.38;5043353;28;20064;-49
2020/12/04 09:25:20;;;;;;;31.73;17.67;;;;;;;2.93;80.17;98895.63;5053990;28;20435;-45
2020/12/04 09:27:49;;;;;;;26.00;15.77;;;;;;;3.38;78.98;98894.28;5043273;28;20057;-47
2020/12/04 09:30:17;;;;;;;28.20;17.13;;;;;;;3.19;78.81;98891.28;5042337;28;20241;-49
2020/12/04 09:32:47;;;;;;;26.48;16.08;;;;;;;2.90;80.04;98893.00;5041034;28;20520;-47
2020/12/04 09:35:13;;;;;;;28.35;17.13;;;;;;;2.96;80.43;98880.56;5047521;28;20393;-47
2020/12/04 09:37:42;;;;;;;26.38;17.00;;;;;;;2.92;79.28;98872.84;5041774;28;20474;-44
2020/12/04 09:40:13;;;;;;;27.67;16.38;;;;;;;2.57;81.31;98871.88;5046266;28;20609;-46
2020/12/04 09:42:40;;;;;;;29.05;17.67;;;;;;;2.42;82.98;98862.22;5044289;28;20064;-47
2020/12/04 09:45:08;;;;;;;30.58;18.42;;;;;;;2.81;81.44;98862.44;5045790;28;20324;-47
2020/12/04 09:47:35;;;;;;;29.55;17.08;;;;;;;2.65;81.78;98871.28;5044274;28;20084;-44
2020/12/04 09:50:11;;;;;;;27.70;17.35;;;;;;;2.82;82.02;98876.81;5045590;28;20439;-43
2020/12/04 09:52:39;;;;;;;29.80;16.85;;;;;;;3.23;79.74;98882.94;5045212;28;20061;-48
2020/12/04 09:55:07;;;;;;;26.58;16.65;;;;;;;3.55;78.20;98882.88;5046313;28;20573;-49
2020/12/04 09:57:34;;;;;;;29.45;18.00;;;;;;;2.99;80.73;98879.78;5044404;28;20045;-47
2020/12/04 10:00:05;;;;;;;26.17;16.38;;;;;;;3.32;80.00;98882.31;5045026;28;20045;-46
2020/12/04 10:02:32;;;;;;;29.02;16.70;;;;;;;3.14;81.29;98876.78;5045227;28;20052;-49
2020/12/04 10:04:58;;;;;;;29.90;16.63;;;;;;;3.31;80.66;98883.13;5043768;28;20441;-49
2020/12/04 10:07:25;;;;;;;28.77;17.90;;;;;;;2.93;81.17;98877.94;5046744;28;20393;-45
2020/12/04 10:09:51;;;;;;;27.92;16.50;;;;;;;3.05;81.20;98887.50;5042252;28;20115;-44
2020/12/04 10:12:18;;;;;;;27.67;16.83;;;;;;;3.01;81.38;98884.06;5047912;28;20417;-46
2020/12/04 10:14:44;;;;;;;27.83;15.93;;;;;;;3.29;80.87;98889.84;5042662;28;20052;-45
2020/12/04 10:17:10;;;;;;;26.20;16.45;;;;;;;3.13;81.29;98892.78;5048218;28;20048;-46
2020/12/04 10:19:37;;;;;;;24.90;16.13;;;;;;;3.90;78.41;98893.00;5043510;28;20110;-49
2020/12/04 10:22:05;;;;;;;25.27;15.07;;;;;;;4.00;77.88;98888.16;5045889;28;20053;-47
2020/12/04 10:24:31;;;;;;;25.02;15.50;;;;;;;3.50;78.74;98886.97;5044945;28;20045;-47
2020/12/04 10:26:58;;;;;;;24.55;15.70;;;;;;;3.88;77.85;98874.38;5044122;28;20068;-46
2020/12/04 10:29:25;;;;;;;23.38;15.48;;;;;;;4.08;77.05;98874.00;5046596;28;20566;-47
2020/12/04 10:31:51;;;;;;;25.75;17.38;;;;;;;4.02;76.97;98868.81;5042035;28;20192;-46
2020/12/04 10:34:18;;;;;;;23.83;15.60;;;;;;;4.07;76.97;98866.38;5047960;28;20060;-44
2020/12/04 10:36:45;;;;;;;25.40;14.13;;;;;;;4.43;75.39;98873.03;5045246;28;20098;-48
2020/12/04 10:39:13;;;;;;;22.75;14.68;;;;;;;4.35;76.24;98870.38;5050525;28;20048;-45
2020/12/04 10:41:41;;;;;;;25.35;15.05;;;;;;;4.23;75.89;98867.56;5047270;28;20045;-51
2020/12/04 10:44:08;;;;;;;25.42;13.93;;;;;;;3.95;77.82;98869.50;5049257;28;20052;-51
2020/12/04 10:46:36;;;;;;;24.65;15.27;;;;;;;4.44;75.57;98878.16;5068113;22;20419;-44
2020/12/04 10:49:03;;;;;;;23.15;14.98;;;;;;;4.53;75.07;98880.00;5035567;28;20103;-42
2020/12/04 10:51:30;;;;;;;23.55;14.40;;;;;;;4.59;75.04;98870.00;5035287;28;20108;-40
2020/12/04 10:53:56;;;;;;;22.30;14.30;;;;;;;4.73;74.77;98867.75;5034857;28;20045;-44
2020/12/04 10:56:24;;;;;;;22.42;15.13;;;;;;;5.06;73.64;98875.13;5039549;28;20048;-45
2020/12/04 10:58:51;;;;;;;23.45;14.85;;;;;;;4.83;74.40;98878.09;5039607;28;20049;-46
2020/12/04 11:01:42;;;;;;;21.73;14.10;;;;;;;4.85;74.90;98867.97;5036868;28;20060;-45
2020/12/04 11:06:57;;;;;;;20.85;14.68;;;;;;;4.25;76.68;98869.31;5038763;28;20041;-43
2020/12/04 11:09:24;;;;;;;26.52;16.20;;;;;;;4.14;77.10;98872.44;5035435;28;20045;-44
2020/12/04 11:11:50;;;;;;;20.33;14.27;;;;;;;4.78;74.71;98871.22;5036321;28;20048;-45
2020/12/04 11:14:17;;;;;;;25.45;15.45;;;;;;;4.20;76.87;98864.94;5039639;28;20045;-42
2020/12/04 11:16:43;;;;;;;23.30;13.80;;;;;;;4.64;75.81;98865.88;5038672;28;20122;-43
2020/12/04 11:19:11;;;;;;;24.75;15.70;;;;;;;4.23;76.35;98868.41;5036241;28;20053;-42
2020/12/04 11:21:37;;;;;;;20.15;13.88;;;;;;;4.49;76.58;98871.50;5035558;28;20076;-40
2020/12/04 11:24:04;;;;;;;21.95;14.50;;;;;;;4.17;77.59;98870.81;5037579;28;20041;-42
2020/12/04 11:26:31;;;;;;;20.35;14.13;;;;;;;4.56;76.20;98875.00;5039311;28;20057;-40
2020/12/04 11:28:59;;;;;;;22.13;14.70;;;;;;;4.71;75.28;98882.91;5037542;28;20610;-42
2020/12/04 11:31:25;;;;;;;26.25;14.77;;;;;;;4.83;74.87;98883.16;5035715;28;20049;-40
2020/12/04 11:33:51;;;;;;;23.65;13.70;;;;;;;5.51;72.16;98894.53;5036308;28;20046;-43